sensor_id;sensor_type;location;lat;lon;timestamp;pressure;altitude;pressure_sealevel;temperature;humidity
76122;BME280;70471;53.200;6.080;2023-06-14T00:00:10;101800.56;;;22.59;37.70
76122;BME280;70471;53.200;6.080;2023-06-14T00:05:03;101803.94;;;22.56;37.77
76122;BME280;70471;53.200;6.080;2023-06-14T00:09:55;101794.53;;;22.52;38.16
76122;BME280;70471;53.200;6.080;2023-06-14T00:14:47;101795.63;;;22.51;37.93
76122;BME280;70471;53.200;6.080;2023-06-14T00:19:39;101793.72;;;22.46;37.93
76122;BME280;70471;53.200;6.080;2023-06-14T00:24:31;101800.69;;;22.44;38.07
76122;BME280;70471;53.200;6.080;2023-06-14T00:29:23;101800.47;;;22.40;37.82
76122;BME280;70471;53.200;6.080;2023-06-14T00:34:15;101803.53;;;22.39;38.23
76122;BME280;70471;53.200;6.080;2023-06-14T00:39:06;101801.06;;;22.37;38.33
76122;BME280;70471;53.200;6.080;2023-06-14T00:44:01;101803.28;;;22.35;38.41
76122;BME280;70471;53.200;6.080;2023-06-14T00:48:53;101809.41;;;22.32;38.41
76122;BME280;70471;53.200;6.080;2023-06-14T00:53:46;101809.72;;;22.30;38.20
76122;BME280;70471;53.200;6.080;2023-06-14T00:58:38;101808.06;;;22.29;38.46
76122;BME280;70471;53.200;6.080;2023-06-14T01:03:31;101804.75;;;22.27;38.57
76122;BME280;70471;53.200;6.080;2023-06-14T01:08:28;101805.34;;;22.24;38.65
76122;BME280;70471;53.200;6.080;2023-06-14T01:13:28;101802.03;;;22.22;38.83
76122;BME280;70471;53.200;6.080;2023-06-14T01:18:20;101800.09;;;22.23;38.68
76122;BME280;70471;53.200;6.080;2023-06-14T01:23:15;101798.72;;;22.20;38.85
76122;BME280;70471;53.200;6.080;2023-06-14T01:28:07;101795.44;;;22.18;38.96
76122;BME280;70471;53.200;6.080;2023-06-14T01:33:00;101800.41;;;22.16;39.05
76122;BME280;70471;53.200;6.080;2023-06-14T01:37:53;101804.03;;;22.16;39.29
76122;BME280;70471;53.200;6.080;2023-06-14T01:42:46;101806.56;;;22.13;39.16
76122;BME280;70471;53.200;6.080;2023-06-14T01:47:39;101812.69;;;22.10;39.39
76122;BME280;70471;53.200;6.080;2023-06-14T01:52:31;101815.75;;;22.08;39.03
76122;BME280;70471;53.200;6.080;2023-06-14T01:57:23;101805.00;;;22.02;39.48
76122;BME280;70471;53.200;6.080;2023-06-14T02:02:18;101811.63;;;22.06;39.50
76122;BME280;70471;53.200;6.080;2023-06-14T02:07:09;101814.69;;;22.04;39.44
76122;BME280;70471;53.200;6.080;2023-06-14T02:12:01;101821.66;;;22.02;39.56
76122;BME280;70471;53.200;6.080;2023-06-14T02:16:53;101812.78;;;21.99;39.40
76122;BME280;70471;53.200;6.080;2023-06-14T02:21:46;101792.34;;;21.90;39.55
76122;BME280;70471;53.200;6.080;2023-06-14T02:26:38;101808.41;;;21.93;39.98
76122;BME280;70471;53.200;6.080;2023-06-14T02:31:29;101804.56;;;21.89;39.73
76122;BME280;70471;53.200;6.080;2023-06-14T02:36:21;101803.50;;;21.85;39.82
76122;BME280;70471;53.200;6.080;2023-06-14T02:41:13;101808.81;;;21.81;39.93
76122;BME280;70471;53.200;6.080;2023-06-14T02:46:05;101812.97;;;21.79;39.73
76122;BME280;70471;53.200;6.080;2023-06-14T02:50:57;101814.34;;;21.76;40.32
76122;BME280;70471;53.200;6.080;2023-06-14T02:55:48;101812.13;;;21.73;39.94
76122;BME280;70471;53.200;6.080;2023-06-14T03:00:41;101817.97;;;21.72;40.43
76122;BME280;70471;53.200;6.080;2023-06-14T03:05:33;101831.31;;;21.70;39.94
76122;BME280;70471;53.200;6.080;2023-06-14T03:10:24;101823.56;;;21.67;40.12
76122;BME280;70471;53.200;6.080;2023-06-14T03:15:19;101829.41;;;21.65;40.24
76122;BME280;70471;53.200;6.080;2023-06-14T03:20:12;101825.28;;;21.62;40.48
76122;BME280;70471;53.200;6.080;2023-06-14T03:25:04;101830.84;;;21.62;40.59
76122;BME280;70471;53.200;6.080;2023-06-14T03:29:55;101833.03;;;21.60;40.95
76122;BME280;70471;53.200;6.080;2023-06-14T03:34:47;101836.09;;;21.59;40.54
76122;BME280;70471;53.200;6.080;2023-06-14T03:39:40;101843.06;;;21.56;40.78
76122;BME280;70471;53.200;6.080;2023-06-14T03:44:36;101845.28;;;21.54;41.04
76122;BME280;70471;53.200;6.080;2023-06-14T03:49:28;101843.66;;;21.53;41.17
76122;BME280;70471;53.200;6.080;2023-06-14T03:54:20;101847.53;;;21.52;41.26
76122;BME280;70471;53.200;6.080;2023-06-14T03:59:13;101845.03;;;21.51;40.94
76122;BME280;70471;53.200;6.080;2023-06-14T04:04:04;101850.88;;;21.49;40.95
76122;BME280;70471;53.200;6.080;2023-06-14T04:08:56;101866.16;;;21.47;41.27
76122;BME280;70471;53.200;6.080;2023-06-14T04:13:47;101869.75;;;21.47;41.15
76122;BME280;70471;53.200;6.080;2023-06-14T04:18:40;101876.41;;;21.46;41.66
76122;BME280;70471;53.200;6.080;2023-06-14T04:23:31;101877.81;;;21.43;41.63
76122;BME280;70471;53.200;6.080;2023-06-14T04:28:22;101884.75;;;21.41;41.25
76122;BME280;70471;53.200;6.080;2023-06-14T04:33:17;101888.63;;;21.40;41.89
76122;BME280;70471;53.200;6.080;2023-06-14T04:38:09;101898.09;;;21.39;41.58
76122;BME280;70471;53.200;6.080;2023-06-14T04:43:01;101895.31;;;21.39;41.70
76122;BME280;70471;53.200;6.080;2023-06-14T04:47:55;101893.34;;;21.39;41.64
76122;BME280;70471;53.200;6.080;2023-06-14T04:52:47;101901.13;;;21.37;41.88
76122;BME280;70471;53.200;6.080;2023-06-14T04:57:42;101901.94;;;21.38;41.93
76122;BME280;70471;53.200;6.080;2023-06-14T05:02:34;101913.03;;;21.38;42.24
76122;BME280;70471;53.200;6.080;2023-06-14T05:07:25;101914.72;;;21.39;41.81
76122;BME280;70471;53.200;6.080;2023-06-14T05:12:17;101910.81;;;21.40;41.86
76122;BME280;70471;53.200;6.080;2023-06-14T05:17:10;101918.59;;;21.38;41.94
76122;BME280;70471;53.200;6.080;2023-06-14T05:22:01;101918.59;;;21.38;42.02
76122;BME280;70471;53.200;6.080;2023-06-14T05:26:54;101926.91;;;21.38;42.31
76122;BME280;70471;53.200;6.080;2023-06-14T05:31:45;101916.63;;;21.38;42.13
76122;BME280;70471;53.200;6.080;2023-06-14T05:36:38;101918.59;;;21.38;42.50
76122;BME280;70471;53.200;6.080;2023-06-14T05:41:29;101922.47;;;21.37;42.22
76122;BME280;70471;53.200;6.080;2023-06-14T05:46:20;101923.03;;;21.34;42.48
76122;BME280;70471;53.200;6.080;2023-06-14T05:51:14;101929.75;;;21.27;42.79
76122;BME280;70471;53.200;6.080;2023-06-14T05:56:10;101934.72;;;21.31;42.52
76122;BME280;70471;53.200;6.080;2023-06-14T06:01:01;101935.22;;;21.38;42.72
76122;BME280;70471;53.200;6.080;2023-06-14T06:05:53;101934.63;;;21.46;42.67
76122;BME280;70471;53.200;6.080;2023-06-14T06:10:44;101933.78;;;21.51;42.53
76122;BME280;70471;53.200;6.080;2023-06-14T06:15:38;101934.88;;;21.55;42.25
76122;BME280;70471;53.200;6.080;2023-06-14T06:20:29;101939.84;;;21.58;42.16
76122;BME280;70471;53.200;6.080;2023-06-14T06:25:21;101945.66;;;21.61;42.36
76122;BME280;70471;53.200;6.080;2023-06-14T06:30:15;101944.25;;;21.64;41.80
76122;BME280;70471;53.200;6.080;2023-06-14T06:35:08;101949.81;;;21.64;42.21
76122;BME280;70471;53.200;6.080;2023-06-14T06:40:01;101962.81;;;21.69;41.76
76122;BME280;70471;53.200;6.080;2023-06-14T06:44:53;101964.47;;;21.70;41.91
76122;BME280;70471;53.200;6.080;2023-06-14T06:49:45;101965.56;;;21.74;42.31
76122;BME280;70471;53.200;6.080;2023-06-14T06:54:38;101974.41;;;21.76;42.01
76122;BME280;70471;53.200;6.080;2023-06-14T06:59:29;101971.63;;;21.81;42.18
76122;BME280;70471;53.200;6.080;2023-06-14T07:04:21;101977.75;;;21.83;41.98
76122;BME280;70471;53.200;6.080;2023-06-14T07:09:13;101981.59;;;21.87;41.71
76122;BME280;70471;53.200;6.080;2023-06-14T07:14:07;101982.97;;;21.90;42.04
76122;BME280;70471;53.200;6.080;2023-06-14T07:18:59;101996.56;;;21.91;42.28
76122;BME280;70471;53.200;6.080;2023-06-14T07:23:50;101993.22;;;21.94;42.22
76122;BME280;70471;53.200;6.080;2023-06-14T07:28:42;101989.31;;;21.95;42.30
76122;BME280;70471;53.200;6.080;2023-06-14T07:33:36;101993.19;;;21.99;41.97
76122;BME280;70471;53.200;6.080;2023-06-14T07:38:28;101993.72;;;22.02;41.95
76122;BME280;70471;53.200;6.080;2023-06-14T07:43:19;102001.47;;;22.05;42.13
76122;BME280;70471;53.200;6.080;2023-06-14T07:48:10;101997.28;;;22.07;42.41
76122;BME280;70471;53.200;6.080;2023-06-14T07:53:03;101996.72;;;22.10;41.92
76122;BME280;70471;53.200;6.080;2023-06-14T07:57:55;101996.16;;;22.08;41.78
76122;BME280;70471;53.200;6.080;2023-06-14T08:02:46;102005.28;;;22.14;42.28
76122;BME280;70471;53.200;6.080;2023-06-14T08:07:39;102005.53;;;22.17;42.18
76122;BME280;70471;53.200;6.080;2023-06-14T08:12:32;102010.81;;;22.19;42.23
76122;BME280;70471;53.200;6.080;2023-06-14T08:17:24;102009.41;;;22.22;41.96
76122;BME280;70471;53.200;6.080;2023-06-14T08:22:15;102008.59;;;22.21;42.42
76122;BME280;70471;53.200;6.080;2023-06-14T08:27:08;102005.53;;;22.23;42.02
76122;BME280;70471;53.200;6.080;2023-06-14T08:32:01;102016.06;;;22.26;42.24
76122;BME280;70471;53.200;6.080;2023-06-14T08:36:52;102005.78;;;22.26;42.58
76122;BME280;70471;53.200;6.080;2023-06-14T08:41:46;102011.84;;;22.28;42.04
76122;BME280;70471;53.200;6.080;2023-06-14T08:46:38;102001.28;;;22.30;42.24
76122;BME280;70471;53.200;6.080;2023-06-14T08:51:32;102000.47;;;22.30;42.28
76122;BME280;70471;53.200;6.080;2023-06-14T08:56:25;101999.06;;;22.32;42.43
76122;BME280;70471;53.200;6.080;2023-06-14T09:01:17;101999.31;;;22.36;42.43
76122;BME280;70471;53.200;6.080;2023-06-14T09:06:09;101990.69;;;22.38;42.31
76122;BME280;70471;53.200;6.080;2023-06-14T09:11:05;101999.56;;;22.40;42.30
76122;BME280;70471;53.200;6.080;2023-06-14T09:15:57;101994.84;;;22.40;42.41
76122;BME280;70471;53.200;6.080;2023-06-14T09:20:48;101993.41;;;22.43;42.41
76122;BME280;70471;53.200;6.080;2023-06-14T09:25:43;102001.47;;;22.44;42.08
76122;BME280;70471;53.200;6.080;2023-06-14T09:30:37;102003.94;;;22.46;42.19
76122;BME280;70471;53.200;6.080;2023-06-14T09:35:31;102000.63;;;22.49;42.27
76122;BME280;70471;53.200;6.080;2023-06-14T09:40:23;101995.59;;;22.51;42.21
76122;BME280;70471;53.200;6.080;2023-06-14T09:45:15;102004.50;;;22.53;42.15
76122;BME280;70471;53.200;6.080;2023-06-14T09:50:11;102002.25;;;22.55;42.23
76122;BME280;70471;53.200;6.080;2023-06-14T09:55:11;102006.41;;;22.58;42.19
76122;BME280;70471;53.200;6.080;2023-06-14T10:00:04;101998.59;;;22.60;42.17
76122;BME280;70471;53.200;6.080;2023-06-14T10:05:03;101999.41;;;22.60;42.20
76122;BME280;70471;53.200;6.080;2023-06-14T10:09:57;101999.69;;;22.64;41.99
76122;BME280;70471;53.200;6.080;2023-06-14T10:14:50;102001.56;;;22.68;41.95
76122;BME280;70471;53.200;6.080;2023-06-14T10:19:48;102008.78;;;22.69;41.86
76122;BME280;70471;53.200;6.080;2023-06-14T10:24:43;101999.88;;;22.73;41.83
76122;BME280;70471;53.200;6.080;2023-06-14T10:30:03;102000.41;;;22.75;42.15
76122;BME280;70471;53.200;6.080;2023-06-14T10:34:57;102000.94;;;22.77;42.15
76122;BME280;70471;53.200;6.080;2023-06-14T10:39:49;102005.06;;;22.79;42.14
76122;BME280;70471;53.200;6.080;2023-06-14T10:44:43;102007.84;;;22.79;42.33
76122;BME280;70471;53.200;6.080;2023-06-14T10:49:41;102008.41;;;22.81;42.39
76122;BME280;70471;53.200;6.080;2023-06-14T10:54:33;101993.91;;;22.84;42.55
76122;BME280;70471;53.200;6.080;2023-06-14T10:59:24;102004.16;;;22.89;42.74
76122;BME280;70471;53.200;6.080;2023-06-14T11:04:20;102000.50;;;22.94;42.68
76122;BME280;70471;53.200;6.080;2023-06-14T11:09:24;101997.69;;;22.99;42.50
76122;BME280;70471;53.200;6.080;2023-06-14T11:14:16;102003.19;;;23.04;42.46
76122;BME280;70471;53.200;6.080;2023-06-14T11:19:08;101982.25;;;23.12;42.26
76122;BME280;70471;53.200;6.080;2023-06-14T11:24:01;101980.56;;;23.16;42.37
76122;BME280;70471;53.200;6.080;2023-06-14T11:28:55;101960.19;;;23.20;42.23
76122;BME280;70471;53.200;6.080;2023-06-14T11:33:49;101978.25;;;23.23;42.19
76122;BME280;70471;53.200;6.080;2023-06-14T11:38:41;101968.78;;;23.24;42.35
76122;BME280;70471;53.200;6.080;2023-06-14T11:43:34;101973.22;;;23.25;42.56
76122;BME280;70471;53.200;6.080;2023-06-14T11:48:36;101964.88;;;23.25;42.60
76122;BME280;70471;53.200;6.080;2023-06-14T11:53:27;101963.22;;;23.24;41.74
76122;BME280;70471;53.200;6.080;2023-06-14T11:58:19;101960.97;;;23.26;40.98
76122;BME280;70471;53.200;6.080;2023-06-14T12:03:12;101962.63;;;23.27;40.17
76122;BME280;70471;53.200;6.080;2023-06-14T12:08:04;101964.88;;;23.25;39.15
76122;BME280;70471;53.200;6.080;2023-06-14T12:12:58;101967.38;;;23.27;38.79
76122;BME280;70471;53.200;6.080;2023-06-14T12:17:50;101963.47;;;23.28;39.02
76122;BME280;70471;53.200;6.080;2023-06-14T12:22:54;101964.88;;;23.25;39.10
76122;BME280;70471;53.200;6.080;2023-06-14T12:27:46;101967.13;;;23.23;39.20
76122;BME280;70471;53.200;6.080;2023-06-14T12:32:38;101968.31;;;23.17;39.25
76122;BME280;70471;53.200;6.080;2023-06-14T12:37:30;101963.31;;;23.14;39.49
76122;BME280;70471;53.200;6.080;2023-06-14T12:42:23;101960.84;;;23.12;39.31
76122;BME280;70471;53.200;6.080;2023-06-14T12:47:14;101962.25;;;23.10;40.02
76122;BME280;70471;53.200;6.080;2023-06-14T12:52:07;101961.41;;;23.09;40.61
76122;BME280;70471;53.200;6.080;2023-06-14T12:56:59;101960.00;;;23.12;41.23
76122;BME280;70471;53.200;6.080;2023-06-14T13:01:51;101972.22;;;23.16;41.57
76122;BME280;70471;53.200;6.080;2023-06-14T13:06:44;101955.53;;;23.16;41.39
76122;BME280;70471;53.200;6.080;2023-06-14T13:11:36;101951.03;;;23.20;41.78
76122;BME280;70471;53.200;6.080;2023-06-14T13:16:28;101969.38;;;23.21;41.85
76122;BME280;70471;53.200;6.080;2023-06-14T13:21:21;101959.31;;;23.25;41.93
76122;BME280;70471;53.200;6.080;2023-06-14T13:26:12;101964.28;;;23.28;42.06
76122;BME280;70471;53.200;6.080;2023-06-14T13:31:04;101967.84;;;23.34;42.09
76122;BME280;70471;53.200;6.080;2023-06-14T13:35:55;101976.41;;;23.37;42.07
76122;BME280;70471;53.200;6.080;2023-06-14T13:40:48;101968.00;;;23.42;42.16
76122;BME280;70471;53.200;6.080;2023-06-14T13:45:40;101967.09;;;23.47;42.13
76122;BME280;70471;53.200;6.080;2023-06-14T13:50:31;101972.91;;;23.51;42.28
76122;BME280;70471;53.200;6.080;2023-06-14T13:55:23;101958.09;;;23.55;42.08
76122;BME280;70471;53.200;6.080;2023-06-14T14:00:17;101966.38;;;23.60;42.12
76122;BME280;70471;53.200;6.080;2023-06-14T14:05:09;101954.34;;;23.65;42.08
76122;BME280;70471;53.200;6.080;2023-06-14T14:10:01;101952.31;;;23.71;42.10
76122;BME280;70471;53.200;6.080;2023-06-14T14:14:52;101949.16;;;23.77;42.13
76122;BME280;70471;53.200;6.080;2023-06-14T14:19:45;101945.50;;;23.82;42.05
76122;BME280;70471;53.200;6.080;2023-06-14T14:24:36;101944.31;;;23.88;42.08
76122;BME280;70471;53.200;6.080;2023-06-14T14:29:28;101952.56;;;23.93;42.01
76122;BME280;70471;53.200;6.080;2023-06-14T14:34:20;101948.88;;;23.98;42.02
76122;BME280;70471;53.200;6.080;2023-06-14T14:39:13;101945.19;;;24.03;41.85
76122;BME280;70471;53.200;6.080;2023-06-14T14:44:05;101939.25;;;24.09;41.80
76122;BME280;70471;53.200;6.080;2023-06-14T14:48:56;101930.84;;;24.14;41.85
76122;BME280;70471;53.200;6.080;2023-06-14T14:53:49;101940.22;;;24.19;42.09
76122;BME280;70471;53.200;6.080;2023-06-14T14:58:42;101934.63;;;24.19;42.13
76122;BME280;70471;53.200;6.080;2023-06-14T15:03:34;101944.88;;;24.23;42.09
76122;BME280;70471;53.200;6.080;2023-06-14T15:08:25;101936.72;;;24.27;42.20
76122;BME280;70471;53.200;6.080;2023-06-14T15:13:17;101933.34;;;24.30;42.09
76122;BME280;70471;53.200;6.080;2023-06-14T15:18:10;101936.88;;;24.36;41.94
76122;BME280;70471;53.200;6.080;2023-06-14T15:23:01;101945.94;;;24.41;42.10
76122;BME280;70471;53.200;6.080;2023-06-14T15:27:53;101940.84;;;24.48;41.73
76122;BME280;70471;53.200;6.080;2023-06-14T15:32:44;101937.16;;;24.53;42.24
76122;BME280;70471;53.200;6.080;2023-06-14T15:37:37;101945.41;;;24.58;41.76
76122;BME280;70471;53.200;6.080;2023-06-14T15:42:28;101945.31;;;24.63;41.81
76122;BME280;70471;53.200;6.080;2023-06-14T15:47:20;101933.25;;;24.68;42.02
76122;BME280;70471;53.200;6.080;2023-06-14T15:52:12;101935.94;;;24.73;42.00
76122;BME280;70471;53.200;6.080;2023-06-14T15:57:05;101930.28;;;24.78;41.59
76122;BME280;70471;53.200;6.080;2023-06-14T16:01:57;101936.56;;;24.84;41.70
76122;BME280;70471;53.200;6.080;2023-06-14T16:06:48;101936.81;;;24.87;41.63
76122;BME280;70471;53.200;6.080;2023-06-14T16:11:40;101934.72;;;24.93;41.81
76122;BME280;70471;53.200;6.080;2023-06-14T16:16:33;101927.72;;;24.96;41.67
76122;BME280;70471;53.200;6.080;2023-06-14T16:21:24;101939.88;;;25.00;41.20
76122;BME280;70471;53.200;6.080;2023-06-14T16:26:16;101936.47;;;25.03;40.90
76122;BME280;70471;53.200;6.080;2023-06-14T16:31:08;101937.84;;;25.05;40.52
76122;BME280;70471;53.200;6.080;2023-06-14T16:36:01;101941.44;;;25.06;40.17
76122;BME280;70471;53.200;6.080;2023-06-14T16:40:52;101943.94;;;25.08;39.94
76122;BME280;70471;53.200;6.080;2023-06-14T16:45:44;101938.66;;;25.06;39.67
76122;BME280;70471;53.200;6.080;2023-06-14T16:50:35;101935.03;;;25.05;38.78
76122;BME280;70471;53.200;6.080;2023-06-14T16:55:28;101941.75;;;25.04;38.49
76122;BME280;70471;53.200;6.080;2023-06-14T17:00:21;101948.78;;;25.02;38.15
76122;BME280;70471;53.200;6.080;2023-06-14T17:05:13;101946.31;;;25.00;37.53
76122;BME280;70471;53.200;6.080;2023-06-14T17:10:06;101951.34;;;24.98;37.65
76122;BME280;70471;53.200;6.080;2023-06-14T17:14:59;101951.66;;;24.97;37.51
76122;BME280;70471;53.200;6.080;2023-06-14T17:19:50;101953.94;;;24.95;37.08
76122;BME280;70471;53.200;6.080;2023-06-14T17:24:42;101957.03;;;24.93;37.04
76122;BME280;70471;53.200;6.080;2023-06-14T17:29:34;101959.09;;;24.87;36.87
76122;BME280;70471;53.200;6.080;2023-06-14T17:34:26;101960.75;;;24.88;36.57
76122;BME280;70471;53.200;6.080;2023-06-14T17:39:18;101966.31;;;24.88;36.51
76122;BME280;70471;53.200;6.080;2023-06-14T17:44:10;101973.34;;;24.86;36.57
76122;BME280;70471;53.200;6.080;2023-06-14T17:49:02;101969.19;;;24.83;36.45
76122;BME280;70471;53.200;6.080;2023-06-14T17:53:56;101974.47;;;24.85;35.83
76122;BME280;70471;53.200;6.080;2023-06-14T17:58:47;101975.84;;;24.87;35.29
76122;BME280;70471;53.200;6.080;2023-06-14T18:03:39;101979.22;;;24.84;34.96
76122;BME280;70471;53.200;6.080;2023-06-14T18:08:30;101983.97;;;24.84;34.24
76122;BME280;70471;53.200;6.080;2023-06-14T18:13:23;101989.22;;;24.85;33.83
76122;BME280;70471;53.200;6.080;2023-06-14T18:18:15;101987.06;;;24.82;33.69
76122;BME280;70471;53.200;6.080;2023-06-14T18:23:06;101985.72;;;24.80;33.30
76122;BME280;70471;53.200;6.080;2023-06-14T18:27:58;101992.53;;;24.74;33.39
76122;BME280;70471;53.200;6.080;2023-06-14T18:32:52;102001.81;;;24.69;32.96
76122;BME280;70471;53.200;6.080;2023-06-14T18:37:44;102002.41;;;24.66;32.69
76122;BME280;70471;53.200;6.080;2023-06-14T18:42:36;102011.88;;;24.65;33.14
76122;BME280;70471;53.200;6.080;2023-06-14T18:47:27;102011.06;;;24.64;32.59
76122;BME280;70471;53.200;6.080;2023-06-14T18:52:20;102018.06;;;24.62;32.03
76122;BME280;70471;53.200;6.080;2023-06-14T18:57:12;102017.34;;;24.56;32.27
76122;BME280;70471;53.200;6.080;2023-06-14T19:02:04;102024.84;;;24.56;32.34
76122;BME280;70471;53.200;6.080;2023-06-14T19:06:55;102018.53;;;24.69;31.86
76122;BME280;70471;53.200;6.080;2023-06-14T19:11:48;102024.69;;;24.66;31.71
76122;BME280;70471;53.200;6.080;2023-06-14T19:16:40;102029.81;;;24.59;31.70
76122;BME280;70471;53.200;6.080;2023-06-14T19:21:32;102031.88;;;24.53;32.09
76122;BME280;70471;53.200;6.080;2023-06-14T19:26:23;102037.25;;;24.49;32.13
76122;BME280;70471;53.200;6.080;2023-06-14T19:31:17;102034.53;;;24.44;32.02
76122;BME280;70471;53.200;6.080;2023-06-14T19:36:09;102042.41;;;24.37;31.64
76122;BME280;70471;53.200;6.080;2023-06-14T19:41:01;102048.38;;;24.30;31.68
76122;BME280;70471;53.200;6.080;2023-06-14T19:45:52;102047.09;;;24.23;31.60
76122;BME280;70471;53.200;6.080;2023-06-14T19:50:45;102051.09;;;24.17;31.61
76122;BME280;70471;53.200;6.080;2023-06-14T19:55:36;102056.72;;;24.11;31.54
76122;BME280;70471;53.200;6.080;2023-06-14T20:00:28;102065.44;;;24.05;31.31
76122;BME280;70471;53.200;6.080;2023-06-14T20:05:20;102070.84;;;23.96;31.34
76122;BME280;70471;53.200;6.080;2023-06-14T20:10:13;102081.00;;;23.87;31.04
76122;BME280;70471;53.200;6.080;2023-06-14T20:15:05;102084.72;;;23.77;31.32
76122;BME280;70471;53.200;6.080;2023-06-14T20:19:57;102082.88;;;23.67;31.70
76122;BME280;70471;53.200;6.080;2023-06-14T20:24:49;102085.69;;;23.62;32.52
76122;BME280;70471;53.200;6.080;2023-06-14T20:29:41;102089.41;;;23.57;34.05
76122;BME280;70471;53.200;6.080;2023-06-14T20:34:33;102101.94;;;23.55;34.73
76122;BME280;70471;53.200;6.080;2023-06-14T20:39:25;102100.56;;;23.52;35.30
76122;BME280;70471;53.200;6.080;2023-06-14T20:44:16;102101.16;;;23.49;35.99
76122;BME280;70471;53.200;6.080;2023-06-14T20:49:09;102097.56;;;23.49;36.46
76122;BME280;70471;53.200;6.080;2023-06-14T20:54:01;102098.13;;;23.46;36.60
76122;BME280;70471;53.200;6.080;2023-06-14T20:58:52;102100.41;;;23.43;37.30
76122;BME280;70471;53.200;6.080;2023-06-14T21:03:45;102108.75;;;23.43;37.60
76122;BME280;70471;53.200;6.080;2023-06-14T21:08:38;102111.53;;;23.43;37.83
76122;BME280;70471;53.200;6.080;2023-06-14T21:13:30;102115.41;;;23.42;37.98
76122;BME280;70471;53.200;6.080;2023-06-14T21:18:21;102105.97;;;23.43;38.43
76122;BME280;70471;53.200;6.080;2023-06-14T21:23:13;102104.88;;;23.39;39.17
76122;BME280;70471;53.200;6.080;2023-06-14T21:28:06;102110.78;;;23.33;40.48
76122;BME280;70471;53.200;6.080;2023-06-14T21:32:57;102107.22;;;23.27;40.84
76122;BME280;70471;53.200;6.080;2023-06-14T21:37:49;102115.63;;;23.22;41.31
76122;BME280;70471;53.200;6.080;2023-06-14T21:42:40;102116.78;;;23.16;41.80
76122;BME280;70471;53.200;6.080;2023-06-14T21:47:33;102116.28;;;23.08;41.98
76122;BME280;70471;53.200;6.080;2023-06-14T21:52:24;102114.84;;;23.11;42.05
76122;BME280;70471;53.200;6.080;2023-06-14T21:57:16;102107.94;;;23.08;42.28
76122;BME280;70471;53.200;6.080;2023-06-14T22:02:07;102118.25;;;23.03;42.36
76122;BME280;70471;53.200;6.080;2023-06-14T22:07:00;102115.78;;;23.01;42.27
76122;BME280;70471;53.200;6.080;2023-06-14T22:11:52;102106.38;;;22.97;42.47
76122;BME280;70471;53.200;6.080;2023-06-14T22:16:46;102112.22;;;22.96;42.49
76122;BME280;70471;53.200;6.080;2023-06-14T22:21:38;102115.56;;;22.93;42.64
76122;BME280;70471;53.200;6.080;2023-06-14T22:26:32;102119.75;;;22.90;42.51
76122;BME280;70471;53.200;6.080;2023-06-14T22:31:36;102114.50;;;22.88;42.54
76122;BME280;70471;53.200;6.080;2023-06-14T22:36:28;102120.34;;;22.87;42.68
76122;BME280;70471;53.200;6.080;2023-06-14T22:41:20;102115.06;;;22.85;42.84
76122;BME280;70471;53.200;6.080;2023-06-14T22:46:17;102122.59;;;22.85;42.70
76122;BME280;70471;53.200;6.080;2023-06-14T22:51:13;102128.13;;;22.85;42.97
76122;BME280;70471;53.200;6.080;2023-06-14T22:56:05;102125.38;;;22.85;42.64
76122;BME280;70471;53.200;6.080;2023-06-14T23:00:57;102124.84;;;22.83;43.03
76122;BME280;70471;53.200;6.080;2023-06-14T23:05:50;102115.94;;;22.81;42.91
76122;BME280;70471;53.200;6.080;2023-06-14T23:10:43;102118.19;;;22.79;43.14
76122;BME280;70471;53.200;6.080;2023-06-14T23:15:35;102110.66;;;22.79;43.10
76122;BME280;70471;53.200;6.080;2023-06-14T23:20:27;102110.97;;;22.78;42.99
76122;BME280;70471;53.200;6.080;2023-06-14T23:25:20;102109.31;;;22.77;42.99
76122;BME280;70471;53.200;6.080;2023-06-14T23:30:14;102112.66;;;22.74;43.06
76122;BME280;70471;53.200;6.080;2023-06-14T23:35:06;102099.94;;;22.67;43.01
76122;BME280;70471;53.200;6.080;2023-06-14T23:39:58;102110.47;;;22.70;43.03
76122;BME280;70471;53.200;6.080;2023-06-14T23:44:52;102107.69;;;22.70;43.26
76122;BME280;70471;53.200;6.080;2023-06-14T23:49:43;102111.03;;;22.67;43.42
76122;BME280;70471;53.200;6.080;2023-06-14T23:54:35;102107.13;;;22.68;43.40
76122;BME280;70471;53.200;6.080;2023-06-14T23:59:26;102110.19;;;22.67;43.31
